sensor_id;sensor_type;location;lat;lon;timestamp;temperature;humidity
70166;SHT30;57541;47.408;18.822;2023-04-03T00:00:03;6.19;77.87
70166;SHT30;57541;47.408;18.822;2023-04-03T00:00:35;6.19;77.59
70166;SHT30;57541;47.408;18.822;2023-04-03T00:01:07;6.17;77.64
70166;SHT30;57541;47.408;18.822;2023-04-03T00:01:39;6.14;77.84
70166;SHT30;57541;47.408;18.822;2023-04-03T00:02:10;6.18;77.65
70166;SHT30;57541;47.408;18.822;2023-04-03T00:02:42;6.21;77.73
70166;SHT30;57541;47.408;18.822;2023-04-03T00:03:14;6.24;77.37
70166;SHT30;57541;47.408;18.822;2023-04-03T00:03:46;6.22;77.54
70166;SHT30;57541;47.408;18.822;2023-04-03T00:04:18;6.17;77.92
70166;SHT30;57541;47.408;18.822;2023-04-03T00:04:49;6.15;78.24
70166;SHT30;57541;47.408;18.822;2023-04-03T00:05:21;6.15;78.17
70166;SHT30;57541;47.408;18.822;2023-04-03T00:05:53;6.17;78.15
70166;SHT30;57541;47.408;18.822;2023-04-03T00:06:25;6.22;77.68
70166;SHT30;57541;47.408;18.822;2023-04-03T00:06:57;6.24;78.00
70166;SHT30;57541;47.408;18.822;2023-04-03T00:07:29;6.21;77.93
70166;SHT30;57541;47.408;18.822;2023-04-03T00:08:01;6.19;78.08
70166;SHT30;57541;47.408;18.822;2023-04-03T00:08:33;6.14;78.18
70166;SHT30;57541;47.408;18.822;2023-04-03T00:09:05;6.12;78.48
70166;SHT30;57541;47.408;18.822;2023-04-03T00:09:39;6.11;78.20
70166;SHT30;57541;47.408;18.822;2023-04-03T00:10:11;6.12;78.45
70166;SHT30;57541;47.408;18.822;2023-04-03T00:10:43;6.15;78.31
70166;SHT30;57541;47.408;18.822;2023-04-03T00:11:16;6.17;78.19
70166;SHT30;57541;47.408;18.822;2023-04-03T00:11:48;6.12;78.20
70166;SHT30;57541;47.408;18.822;2023-04-03T00:12:19;6.12;78.36
70166;SHT30;57541;47.408;18.822;2023-04-03T00:12:51;6.08;78.18
70166;SHT30;57541;47.408;18.822;2023-04-03T00:13:23;6.09;77.86
70166;SHT30;57541;47.408;18.822;2023-04-03T00:13:55;6.08;78.19
70166;SHT30;57541;47.408;18.822;2023-04-03T00:14:26;6.07;78.11
70166;SHT30;57541;47.408;18.822;2023-04-03T00:14:58;6.11;78.45
70166;SHT30;57541;47.408;18.822;2023-04-03T00:15:30;6.05;78.28
70166;SHT30;57541;47.408;18.822;2023-04-03T00:16:02;6.04;78.29
70166;SHT30;57541;47.408;18.822;2023-04-03T00:16:34;6.08;78.37
70166;SHT30;57541;47.408;18.822;2023-04-03T00:17:06;6.07;78.37
70166;SHT30;57541;47.408;18.822;2023-04-03T00:17:38;6.07;78.34
70166;SHT30;57541;47.408;18.822;2023-04-03T00:18:09;6.05;78.28
70166;SHT30;57541;47.408;18.822;2023-04-03T00:18:42;6.08;78.03
70166;SHT30;57541;47.408;18.822;2023-04-03T00:19:13;6.04;78.22
70166;SHT30;57541;47.408;18.822;2023-04-03T00:19:46;6.02;77.74
70166;SHT30;57541;47.408;18.822;2023-04-03T00:20:17;6.08;77.64
70166;SHT30;57541;47.408;18.822;2023-04-03T00:20:49;6.02;77.60
70166;SHT30;57541;47.408;18.822;2023-04-03T00:21:21;6.01;78.10
70166;SHT30;57541;47.408;18.822;2023-04-03T00:21:53;6.01;77.96
70166;SHT30;57541;47.408;18.822;2023-04-03T00:22:25;6.04;77.94
70166;SHT30;57541;47.408;18.822;2023-04-03T00:22:58;6.02;77.94
70166;SHT30;57541;47.408;18.822;2023-04-03T00:23:30;6.04;78.32
70166;SHT30;57541;47.408;18.822;2023-04-03T00:24:02;6.04;78.17
70166;SHT30;57541;47.408;18.822;2023-04-03T00:24:34;6.08;78.06
70166;SHT30;57541;47.408;18.822;2023-04-03T00:25:06;6.07;78.08
70166;SHT30;57541;47.408;18.822;2023-04-03T00:25:37;6.08;77.83
70166;SHT30;57541;47.408;18.822;2023-04-03T00:26:09;6.07;77.63
70166;SHT30;57541;47.408;18.822;2023-04-03T00:26:41;6.02;77.93
70166;SHT30;57541;47.408;18.822;2023-04-03T00:27:12;6.05;78.06
70166;SHT30;57541;47.408;18.822;2023-04-03T00:27:44;6.01;78.23
70166;SHT30;57541;47.408;18.822;2023-04-03T00:28:16;6.07;77.82
70166;SHT30;57541;47.408;18.822;2023-04-03T00:28:48;6.02;77.91
70166;SHT30;57541;47.408;18.822;2023-04-03T00:29:19;6.07;77.85
70166;SHT30;57541;47.408;18.822;2023-04-03T00:29:51;6.01;78.12
70166;SHT30;57541;47.408;18.822;2023-04-03T00:30:23;6.01;77.87
70166;SHT30;57541;47.408;18.822;2023-04-03T00:30:55;6.01;77.78
70166;SHT30;57541;47.408;18.822;2023-04-03T00:31:26;6.01;77.80
70166;SHT30;57541;47.408;18.822;2023-04-03T00:31:58;5.95;77.63
70166;SHT30;57541;47.408;18.822;2023-04-03T00:32:30;5.97;78.06
70166;SHT30;57541;47.408;18.822;2023-04-03T00:33:01;6.01;78.09
70166;SHT30;57541;47.408;18.822;2023-04-03T00:33:33;6.05;77.65
70166;SHT30;57541;47.408;18.822;2023-04-03T00:34:05;6.01;77.77
70166;SHT30;57541;47.408;18.822;2023-04-03T00:34:37;6.05;77.71
70166;SHT30;57541;47.408;18.822;2023-04-03T00:35:09;5.98;77.92
70166;SHT30;57541;47.408;18.822;2023-04-03T00:35:41;5.93;77.82
70166;SHT30;57541;47.408;18.822;2023-04-03T00:36:13;5.99;77.93
70166;SHT30;57541;47.408;18.822;2023-04-03T00:36:45;5.98;77.47
70166;SHT30;57541;47.408;18.822;2023-04-03T00:37:17;6.01;77.74
70166;SHT30;57541;47.408;18.822;2023-04-03T00:37:51;5.95;77.85
70166;SHT30;57541;47.408;18.822;2023-04-03T00:38:24;5.95;77.82
70166;SHT30;57541;47.408;18.822;2023-04-03T00:38:56;5.97;77.85
70166;SHT30;57541;47.408;18.822;2023-04-03T00:39:27;5.98;77.72
70166;SHT30;57541;47.408;18.822;2023-04-03T00:39:59;5.95;77.70
70166;SHT30;57541;47.408;18.822;2023-04-03T00:40:39;5.94;77.58
70166;SHT30;57541;47.408;18.822;2023-04-03T00:41:12;5.98;77.70
70166;SHT30;57541;47.408;18.822;2023-04-03T00:41:44;5.95;77.60
70166;SHT30;57541;47.408;18.822;2023-04-03T00:42:16;5.94;77.56
70166;SHT30;57541;47.408;18.822;2023-04-03T00:42:52;5.91;77.65
70166;SHT30;57541;47.408;18.822;2023-04-03T00:43:25;5.88;77.58
70166;SHT30;57541;47.408;18.822;2023-04-03T00:43:57;5.88;77.64
70166;SHT30;57541;47.408;18.822;2023-04-03T00:45:39;5.91;77.56
70166;SHT30;57541;47.408;18.822;2023-04-03T00:46:11;5.90;77.65
70166;SHT30;57541;47.408;18.822;2023-04-03T00:46:43;5.98;77.73
70166;SHT30;57541;47.408;18.822;2023-04-03T00:47:16;5.94;77.53
70166;SHT30;57541;47.408;18.822;2023-04-03T00:47:48;5.93;77.49
70166;SHT30;57541;47.408;18.822;2023-04-03T00:48:25;5.95;77.25
70166;SHT30;57541;47.408;18.822;2023-04-03T00:48:57;5.90;77.74
70166;SHT30;57541;47.408;18.822;2023-04-03T00:49:29;5.88;77.52
70166;SHT30;57541;47.408;18.822;2023-04-03T00:50:01;5.94;77.67
70166;SHT30;57541;47.408;18.822;2023-04-03T00:50:37;5.93;77.69
70166;SHT30;57541;47.408;18.822;2023-04-03T00:51:14;5.97;77.77
70166;SHT30;57541;47.408;18.822;2023-04-03T00:51:47;5.94;77.56
70166;SHT30;57541;47.408;18.822;2023-04-03T00:52:23;6.01;77.52
70166;SHT30;57541;47.408;18.822;2023-04-03T00:52:57;5.99;77.23
70166;SHT30;57541;47.408;18.822;2023-04-03T00:53:33;5.95;77.35
70166;SHT30;57541;47.408;18.822;2023-04-03T00:54:07;5.94;77.31
70166;SHT30;57541;47.408;18.822;2023-04-03T00:54:41;5.99;77.63
70166;SHT30;57541;47.408;18.822;2023-04-03T00:55:13;5.97;77.55
70166;SHT30;57541;47.408;18.822;2023-04-03T00:55:47;5.97;77.65
70166;SHT30;57541;47.408;18.822;2023-04-03T00:56:21;5.97;77.66
70166;SHT30;57541;47.408;18.822;2023-04-03T00:56:55;5.90;77.75
70166;SHT30;57541;47.408;18.822;2023-04-03T00:57:29;5.87;77.53
70166;SHT30;57541;47.408;18.822;2023-04-03T00:58:02;5.90;77.28
70166;SHT30;57541;47.408;18.822;2023-04-03T00:58:42;5.94;77.56
70166;SHT30;57541;47.408;18.822;2023-04-03T00:59:22;5.91;77.57
70166;SHT30;57541;47.408;18.822;2023-04-03T00:59:59;5.90;77.37
70166;SHT30;57541;47.408;18.822;2023-04-03T01:00:32;5.86;77.34
70166;SHT30;57541;47.408;18.822;2023-04-03T01:01:10;5.87;77.61
70166;SHT30;57541;47.408;18.822;2023-04-03T01:01:43;5.87;77.38
70166;SHT30;57541;47.408;18.822;2023-04-03T01:02:16;5.88;77.43
70166;SHT30;57541;47.408;18.822;2023-04-03T01:02:47;5.86;77.11
70166;SHT30;57541;47.408;18.822;2023-04-03T01:03:19;5.88;77.04
70166;SHT30;57541;47.408;18.822;2023-04-03T01:03:51;5.93;77.09
70166;SHT30;57541;47.408;18.822;2023-04-03T01:04:38;5.95;77.36
70166;SHT30;57541;47.408;18.822;2023-04-03T01:05:11;5.95;76.78
70166;SHT30;57541;47.408;18.822;2023-04-03T01:05:43;5.94;76.82
70166;SHT30;57541;47.408;18.822;2023-04-03T01:06:16;5.93;76.91
70166;SHT30;57541;47.408;18.822;2023-04-03T01:06:48;5.95;77.00
70166;SHT30;57541;47.408;18.822;2023-04-03T01:07:27;5.95;77.01
70166;SHT30;57541;47.408;18.822;2023-04-03T01:08:00;5.99;77.51
70166;SHT30;57541;47.408;18.822;2023-04-03T01:08:32;5.94;77.20
70166;SHT30;57541;47.408;18.822;2023-04-03T01:09:05;5.86;77.09
70166;SHT30;57541;47.408;18.822;2023-04-03T01:09:37;5.86;77.34
70166;SHT30;57541;47.408;18.822;2023-04-03T01:10:12;5.84;77.60
70166;SHT30;57541;47.408;18.822;2023-04-03T01:10:45;5.87;77.46
70166;SHT30;57541;47.408;18.822;2023-04-03T01:11:17;5.91;77.20
70166;SHT30;57541;47.408;18.822;2023-04-03T01:11:49;5.88;76.91
70166;SHT30;57541;47.408;18.822;2023-04-03T01:12:52;5.87;77.18
70166;SHT30;57541;47.408;18.822;2023-04-03T01:13:27;5.84;76.95
70166;SHT30;57541;47.408;18.822;2023-04-03T01:13:59;5.78;77.29
70166;SHT30;57541;47.408;18.822;2023-04-03T01:14:32;5.87;77.18
70166;SHT30;57541;47.408;18.822;2023-04-03T01:15:08;5.81;77.60
70166;SHT30;57541;47.408;18.822;2023-04-03T01:15:40;5.81;77.35
70166;SHT30;57541;47.408;18.822;2023-04-03T01:16:12;5.81;77.33
70166;SHT30;57541;47.408;18.822;2023-04-03T01:16:54;5.80;77.23
70166;SHT30;57541;47.408;18.822;2023-04-03T01:17:58;5.88;77.27
70166;SHT30;57541;47.408;18.822;2023-04-03T01:18:30;5.84;77.20
70166;SHT30;57541;47.408;18.822;2023-04-03T01:19:10;5.81;77.00
70166;SHT30;57541;47.408;18.822;2023-04-03T01:19:48;5.75;77.11
70166;SHT30;57541;47.408;18.822;2023-04-03T01:22:35;5.70;77.32
70166;SHT30;57541;47.408;18.822;2023-04-03T01:24:01;5.78;77.16
70166;SHT30;57541;47.408;18.822;2023-04-03T01:24:37;5.75;77.64
70166;SHT30;57541;47.408;18.822;2023-04-03T01:25:10;5.80;77.31
70166;SHT30;57541;47.408;18.822;2023-04-03T01:25:49;5.77;77.27
70166;SHT30;57541;47.408;18.822;2023-04-03T01:26:21;5.73;77.54
70166;SHT30;57541;47.408;18.822;2023-04-03T01:26:53;5.77;77.40
70166;SHT30;57541;47.408;18.822;2023-04-03T01:27:24;5.75;77.58
70166;SHT30;57541;47.408;18.822;2023-04-03T01:27:57;5.75;77.33
70166;SHT30;57541;47.408;18.822;2023-04-03T01:28:32;5.71;77.67
70166;SHT30;57541;47.408;18.822;2023-04-03T01:29:04;5.71;77.43
70166;SHT30;57541;47.408;18.822;2023-04-03T01:29:36;5.74;77.84
70166;SHT30;57541;47.408;18.822;2023-04-03T01:30:09;5.74;77.63
70166;SHT30;57541;47.408;18.822;2023-04-03T01:30:53;5.75;77.27
70166;SHT30;57541;47.408;18.822;2023-04-03T01:31:32;5.74;77.75
70166;SHT30;57541;47.408;18.822;2023-04-03T01:32:05;5.75;77.83
70166;SHT30;57541;47.408;18.822;2023-04-03T01:32:37;5.77;77.73
70166;SHT30;57541;47.408;18.822;2023-04-03T01:33:09;5.74;77.86
70166;SHT30;57541;47.408;18.822;2023-04-03T01:33:41;5.77;77.73
70166;SHT30;57541;47.408;18.822;2023-04-03T01:34:12;5.78;77.63
70166;SHT30;57541;47.408;18.822;2023-04-03T01:34:44;5.71;77.27
70166;SHT30;57541;47.408;18.822;2023-04-03T01:35:16;5.68;77.31
70166;SHT30;57541;47.408;18.822;2023-04-03T01:35:47;5.70;77.23
70166;SHT30;57541;47.408;18.822;2023-04-03T01:36:25;5.71;77.45
70166;SHT30;57541;47.408;18.822;2023-04-03T01:36:58;5.70;77.69
70166;SHT30;57541;47.408;18.822;2023-04-03T01:37:29;5.73;77.50
70166;SHT30;57541;47.408;18.822;2023-04-03T01:38:01;5.70;77.57
70166;SHT30;57541;47.408;18.822;2023-04-03T01:38:33;5.67;77.86
70166;SHT30;57541;47.408;18.822;2023-04-03T01:39:05;5.67;77.51
70166;SHT30;57541;47.408;18.822;2023-04-03T01:39:37;5.67;77.35
70166;SHT30;57541;47.408;18.822;2023-04-03T01:40:09;5.71;77.54
70166;SHT30;57541;47.408;18.822;2023-04-03T01:40:41;5.64;77.38
70166;SHT30;57541;47.408;18.822;2023-04-03T01:41:12;5.64;77.59
70166;SHT30;57541;47.408;18.822;2023-04-03T01:41:44;5.61;77.89
70166;SHT30;57541;47.408;18.822;2023-04-03T01:42:16;5.64;77.52
70166;SHT30;57541;47.408;18.822;2023-04-03T01:42:47;5.60;77.34
70166;SHT30;57541;47.408;18.822;2023-04-03T01:43:19;5.57;77.70
70166;SHT30;57541;47.408;18.822;2023-04-03T01:43:51;5.57;77.62
70166;SHT30;57541;47.408;18.822;2023-04-03T01:44:23;5.61;77.67
70166;SHT30;57541;47.408;18.822;2023-04-03T01:44:55;5.54;77.76
70166;SHT30;57541;47.408;18.822;2023-04-03T01:45:26;5.61;77.57
70166;SHT30;57541;47.408;18.822;2023-04-03T01:45:58;5.60;77.63
70166;SHT30;57541;47.408;18.822;2023-04-03T01:46:30;5.63;78.02
70166;SHT30;57541;47.408;18.822;2023-04-03T01:47:02;5.64;77.84
70166;SHT30;57541;47.408;18.822;2023-04-03T01:47:36;5.61;77.69
70166;SHT30;57541;47.408;18.822;2023-04-03T01:48:08;5.57;77.73
70166;SHT30;57541;47.408;18.822;2023-04-03T01:48:40;5.57;77.73
70166;SHT30;57541;47.408;18.822;2023-04-03T01:49:11;5.57;77.88
70166;SHT30;57541;47.408;18.822;2023-04-03T01:49:43;5.57;77.73
70166;SHT30;57541;47.408;18.822;2023-04-03T01:50:15;5.56;77.52
70166;SHT30;57541;47.408;18.822;2023-04-03T01:50:46;5.57;77.92
70166;SHT30;57541;47.408;18.822;2023-04-03T01:51:18;5.53;77.70
70166;SHT30;57541;47.408;18.822;2023-04-03T01:51:50;5.56;78.01
70166;SHT30;57541;47.408;18.822;2023-04-03T01:52:21;5.59;77.91
70166;SHT30;57541;47.408;18.822;2023-04-03T01:52:53;5.57;77.85
70166;SHT30;57541;47.408;18.822;2023-04-03T01:53:25;5.50;78.11
70166;SHT30;57541;47.408;18.822;2023-04-03T01:53:56;5.47;78.27
70166;SHT30;57541;47.408;18.822;2023-04-03T01:54:28;5.49;78.53
70166;SHT30;57541;47.408;18.822;2023-04-03T01:55:00;5.57;78.28
70166;SHT30;57541;47.408;18.822;2023-04-03T01:55:31;5.51;78.26
70166;SHT30;57541;47.408;18.822;2023-04-03T01:56:03;5.50;78.46
70166;SHT30;57541;47.408;18.822;2023-04-03T01:56:35;5.50;77.91
70166;SHT30;57541;47.408;18.822;2023-04-03T01:57:07;5.51;78.10
70166;SHT30;57541;47.408;18.822;2023-04-03T01:57:39;5.51;78.23
70166;SHT30;57541;47.408;18.822;2023-04-03T01:58:10;5.54;78.20
70166;SHT30;57541;47.408;18.822;2023-04-03T01:58:42;5.50;78.32
70166;SHT30;57541;47.408;18.822;2023-04-03T01:59:14;5.51;78.57
70166;SHT30;57541;47.408;18.822;2023-04-03T01:59:48;5.51;78.48
70166;SHT30;57541;47.408;18.822;2023-04-03T02:00:20;5.56;78.17
70166;SHT30;57541;47.408;18.822;2023-04-03T02:00:52;5.57;77.85
70166;SHT30;57541;47.408;18.822;2023-04-03T02:01:24;5.51;78.04
70166;SHT30;57541;47.408;18.822;2023-04-03T02:01:57;5.56;78.30
70166;SHT30;57541;47.408;18.822;2023-04-03T02:02:28;5.50;78.50
70166;SHT30;57541;47.408;18.822;2023-04-03T02:03:00;5.53;78.32
70166;SHT30;57541;47.408;18.822;2023-04-03T02:03:32;5.49;78.44
70166;SHT30;57541;47.408;18.822;2023-04-03T02:04:04;5.44;78.41
70166;SHT30;57541;47.408;18.822;2023-04-03T02:04:36;5.49;78.62
70166;SHT30;57541;47.408;18.822;2023-04-03T02:05:08;5.47;78.23
70166;SHT30;57541;47.408;18.822;2023-04-03T02:05:39;5.46;78.58
70166;SHT30;57541;47.408;18.822;2023-04-03T02:06:11;5.49;78.52
70166;SHT30;57541;47.408;18.822;2023-04-03T02:06:43;5.44;78.75
70166;SHT30;57541;47.408;18.822;2023-04-03T02:07:14;5.44;78.65
70166;SHT30;57541;47.408;18.822;2023-04-03T02:07:46;5.44;78.39
70166;SHT30;57541;47.408;18.822;2023-04-03T02:08:18;5.43;78.43
70166;SHT30;57541;47.408;18.822;2023-04-03T02:08:50;5.46;78.56
70166;SHT30;57541;47.408;18.822;2023-04-03T02:09:21;5.49;78.89
70166;SHT30;57541;47.408;18.822;2023-04-03T02:09:53;5.44;78.92
70166;SHT30;57541;47.408;18.822;2023-04-03T02:10:24;5.42;78.92
70166;SHT30;57541;47.408;18.822;2023-04-03T02:10:56;5.38;78.88
70166;SHT30;57541;47.408;18.822;2023-04-03T02:11:28;5.40;79.15
70166;SHT30;57541;47.408;18.822;2023-04-03T02:11:59;5.42;79.31
70166;SHT30;57541;47.408;18.822;2023-04-03T02:12:32;5.47;79.22
70166;SHT30;57541;47.408;18.822;2023-04-03T02:13:03;5.50;79.16
70166;SHT30;57541;47.408;18.822;2023-04-03T02:13:35;5.43;79.27
70166;SHT30;57541;47.408;18.822;2023-04-03T02:14:07;5.43;79.14
70166;SHT30;57541;47.408;18.822;2023-04-03T02:14:38;5.39;78.91
70166;SHT30;57541;47.408;18.822;2023-04-03T02:15:10;5.38;79.01
70166;SHT30;57541;47.408;18.822;2023-04-03T02:15:42;5.36;78.99
70166;SHT30;57541;47.408;18.822;2023-04-03T02:16:13;5.35;79.00
70166;SHT30;57541;47.408;18.822;2023-04-03T02:16:45;5.36;79.26
70166;SHT30;57541;47.408;18.822;2023-04-03T02:17:17;5.39;79.13
70166;SHT30;57541;47.408;18.822;2023-04-03T02:17:48;5.36;79.36
70166;SHT30;57541;47.408;18.822;2023-04-03T02:18:20;5.33;79.64
70166;SHT30;57541;47.408;18.822;2023-04-03T02:18:52;5.32;79.52
70166;SHT30;57541;47.408;18.822;2023-04-03T02:19:23;5.33;79.28
70166;SHT30;57541;47.408;18.822;2023-04-03T02:19:55;5.35;79.60
70166;SHT30;57541;47.408;18.822;2023-04-03T02:20:27;5.33;79.36
70166;SHT30;57541;47.408;18.822;2023-04-03T02:20:58;5.32;79.53
70166;SHT30;57541;47.408;18.822;2023-04-03T02:21:30;5.36;79.73
70166;SHT30;57541;47.408;18.822;2023-04-03T02:22:03;5.36;79.61
70166;SHT30;57541;47.408;18.822;2023-04-03T02:22:35;5.38;79.45
70166;SHT30;57541;47.408;18.822;2023-04-03T02:23:07;5.35;79.39
70166;SHT30;57541;47.408;18.822;2023-04-03T02:23:39;5.30;79.21
70166;SHT30;57541;47.408;18.822;2023-04-03T02:24:10;5.30;79.23
70166;SHT30;57541;47.408;18.822;2023-04-03T02:24:42;5.30;79.39
70166;SHT30;57541;47.408;18.822;2023-04-03T02:25:14;5.28;79.69
70166;SHT30;57541;47.408;18.822;2023-04-03T02:25:46;5.35;79.62
70166;SHT30;57541;47.408;18.822;2023-04-03T02:26:17;5.32;79.51
70166;SHT30;57541;47.408;18.822;2023-04-03T02:26:49;5.28;79.56
70166;SHT30;57541;47.408;18.822;2023-04-03T02:27:20;5.28;79.59
70166;SHT30;57541;47.408;18.822;2023-04-03T02:27:52;5.32;79.62
70166;SHT30;57541;47.408;18.822;2023-04-03T02:28:24;5.30;79.62
70166;SHT30;57541;47.408;18.822;2023-04-03T02:28:56;5.25;79.85
70166;SHT30;57541;47.408;18.822;2023-04-03T02:29:27;5.29;79.44
70166;SHT30;57541;47.408;18.822;2023-04-03T02:29:59;5.29;79.61
70166;SHT30;57541;47.408;18.822;2023-04-03T02:30:30;5.28;79.50
70166;SHT30;57541;47.408;18.822;2023-04-03T02:31:03;5.29;79.51
70166;SHT30;57541;47.408;18.822;2023-04-03T02:31:35;5.26;79.74
70166;SHT30;57541;47.408;18.822;2023-04-03T02:32:06;5.23;79.73
70166;SHT30;57541;47.408;18.822;2023-04-03T02:32:38;5.23;79.74
70166;SHT30;57541;47.408;18.822;2023-04-03T02:33:10;5.20;79.61
70166;SHT30;57541;47.408;18.822;2023-04-03T02:33:42;5.20;79.86
70166;SHT30;57541;47.408;18.822;2023-04-03T02:34:13;5.25;79.74
70166;SHT30;57541;47.408;18.822;2023-04-03T02:34:45;5.26;80.01
70166;SHT30;57541;47.408;18.822;2023-04-03T02:35:17;5.20;80.02
70166;SHT30;57541;47.408;18.822;2023-04-03T02:35:53;5.15;79.86
70166;SHT30;57541;47.408;18.822;2023-04-03T02:36:24;5.15;79.76
70166;SHT30;57541;47.408;18.822;2023-04-03T02:36:56;5.16;79.58
70166;SHT30;57541;47.408;18.822;2023-04-03T02:37:28;5.13;79.59
70166;SHT30;57541;47.408;18.822;2023-04-03T02:37:59;5.19;79.62
70166;SHT30;57541;47.408;18.822;2023-04-03T02:38:31;5.22;79.73
70166;SHT30;57541;47.408;18.822;2023-04-03T02:39:03;5.19;79.74
70166;SHT30;57541;47.408;18.822;2023-04-03T02:39:35;5.20;79.89
70166;SHT30;57541;47.408;18.822;2023-04-03T02:40:07;5.20;80.13
70166;SHT30;57541;47.408;18.822;2023-04-03T02:40:39;5.20;79.75
70166;SHT30;57541;47.408;18.822;2023-04-03T02:41:11;5.22;80.01
70166;SHT30;57541;47.408;18.822;2023-04-03T02:41:43;5.23;80.13
70166;SHT30;57541;47.408;18.822;2023-04-03T02:42:14;5.19;79.99
70166;SHT30;57541;47.408;18.822;2023-04-03T02:42:46;5.16;79.91
70166;SHT30;57541;47.408;18.822;2023-04-03T02:43:18;5.20;79.75
70166;SHT30;57541;47.408;18.822;2023-04-03T02:43:50;5.19;79.77
70166;SHT30;57541;47.408;18.822;2023-04-03T02:44:21;5.22;79.84
70166;SHT30;57541;47.408;18.822;2023-04-03T02:44:54;5.23;79.87
70166;SHT30;57541;47.408;18.822;2023-04-03T02:45:28;5.22;79.96
70166;SHT30;57541;47.408;18.822;2023-04-03T02:46:00;5.15;79.87
70166;SHT30;57541;47.408;18.822;2023-04-03T02:46:32;5.15;80.26
70166;SHT30;57541;47.408;18.822;2023-04-03T02:47:04;5.19;80.21
70166;SHT30;57541;47.408;18.822;2023-04-03T02:47:36;5.18;80.11
70166;SHT30;57541;47.408;18.822;2023-04-03T02:48:08;5.13;80.09
70166;SHT30;57541;47.408;18.822;2023-04-03T02:48:40;5.12;80.44
70166;SHT30;57541;47.408;18.822;2023-04-03T02:49:11;5.11;80.38
70166;SHT30;57541;47.408;18.822;2023-04-03T02:49:43;5.12;80.47
70166;SHT30;57541;47.408;18.822;2023-04-03T02:50:16;5.11;80.31
70166;SHT30;57541;47.408;18.822;2023-04-03T02:50:48;5.09;80.25
70166;SHT30;57541;47.408;18.822;2023-04-03T02:51:19;5.07;80.47
70166;SHT30;57541;47.408;18.822;2023-04-03T02:51:51;5.08;80.62
70166;SHT30;57541;47.408;18.822;2023-04-03T02:52:23;5.13;80.56
70166;SHT30;57541;47.408;18.822;2023-04-03T02:52:54;5.09;80.73
70166;SHT30;57541;47.408;18.822;2023-04-03T02:53:26;5.08;80.45
70166;SHT30;57541;47.408;18.822;2023-04-03T02:53:58;5.08;80.71
70166;SHT30;57541;47.408;18.822;2023-04-03T02:54:29;5.07;80.77
70166;SHT30;57541;47.408;18.822;2023-04-03T02:55:02;5.07;80.68
70166;SHT30;57541;47.408;18.822;2023-04-03T02:55:34;5.07;80.64
70166;SHT30;57541;47.408;18.822;2023-04-03T02:56:05;5.08;80.76
70166;SHT30;57541;47.408;18.822;2023-04-03T02:56:37;5.08;80.81
70166;SHT30;57541;47.408;18.822;2023-04-03T02:57:09;5.08;80.56
70166;SHT30;57541;47.408;18.822;2023-04-03T02:57:41;5.05;80.71
70166;SHT30;57541;47.408;18.822;2023-04-03T02:58:12;5.02;80.98
70166;SHT30;57541;47.408;18.822;2023-04-03T02:58:44;5.02;81.37
70166;SHT30;57541;47.408;18.822;2023-04-03T02:59:16;4.96;80.98
70166;SHT30;57541;47.408;18.822;2023-04-03T02:59:48;4.98;81.09
70166;SHT30;57541;47.408;18.822;2023-04-03T03:00:20;4.95;81.34
70166;SHT30;57541;47.408;18.822;2023-04-03T03:00:51;4.96;81.36
70166;SHT30;57541;47.408;18.822;2023-04-03T03:01:23;4.91;81.33
70166;SHT30;57541;47.408;18.822;2023-04-03T03:01:55;4.96;81.18
70166;SHT30;57541;47.408;18.822;2023-04-03T03:02:27;4.95;81.46
70166;SHT30;57541;47.408;18.822;2023-04-03T03:02:59;4.95;81.54
70166;SHT30;57541;47.408;18.822;2023-04-03T03:03:31;4.98;81.57
70166;SHT30;57541;47.408;18.822;2023-04-03T03:04:02;4.96;81.48
70166;SHT30;57541;47.408;18.822;2023-04-03T03:04:34;4.96;81.30
70166;SHT30;57541;47.408;18.822;2023-04-03T03:05:07;4.98;81.37
70166;SHT30;57541;47.408;18.822;2023-04-03T03:05:39;4.96;81.38
70166;SHT30;57541;47.408;18.822;2023-04-03T03:06:13;4.91;81.86
70166;SHT30;57541;47.408;18.822;2023-04-03T03:06:45;4.89;81.45
70166;SHT30;57541;47.408;18.822;2023-04-03T03:07:17;4.92;81.42
70166;SHT30;57541;47.408;18.822;2023-04-03T03:07:49;4.95;81.52
70166;SHT30;57541;47.408;18.822;2023-04-03T03:08:21;4.98;81.49
70166;SHT30;57541;47.408;18.822;2023-04-03T03:08:53;4.91;81.39
70166;SHT30;57541;47.408;18.822;2023-04-03T03:09:25;4.91;81.86
70166;SHT30;57541;47.408;18.822;2023-04-03T03:09:57;4.95;81.61
70166;SHT30;57541;47.408;18.822;2023-04-03T03:10:29;4.96;81.17
70166;SHT30;57541;47.408;18.822;2023-04-03T03:11:01;4.99;81.31
70166;SHT30;57541;47.408;18.822;2023-04-03T03:11:33;4.95;81.27
70166;SHT30;57541;47.408;18.822;2023-04-03T03:12:04;4.93;81.40
70166;SHT30;57541;47.408;18.822;2023-04-03T03:12:36;4.89;81.32
70166;SHT30;57541;47.408;18.822;2023-04-03T03:13:08;4.89;81.44
70166;SHT30;57541;47.408;18.822;2023-04-03T03:13:40;4.96;81.53
70166;SHT30;57541;47.408;18.822;2023-04-03T03:14:11;4.89;81.16
70166;SHT30;57541;47.408;18.822;2023-04-03T03:14:43;4.88;81.37
70166;SHT30;57541;47.408;18.822;2023-04-03T03:15:15;4.84;81.53
70166;SHT30;57541;47.408;18.822;2023-04-03T03:15:46;4.88;81.37
70166;SHT30;57541;47.408;18.822;2023-04-03T03:16:18;4.84;81.81
70166;SHT30;57541;47.408;18.822;2023-04-03T03:16:50;4.85;81.80
70166;SHT30;57541;47.408;18.822;2023-04-03T03:17:21;4.82;81.80
70166;SHT30;57541;47.408;18.822;2023-04-03T03:17:53;4.82;81.95
70166;SHT30;57541;47.408;18.822;2023-04-03T03:18:25;4.81;81.74
70166;SHT30;57541;47.408;18.822;2023-04-03T03:18:57;4.81;82.01
70166;SHT30;57541;47.408;18.822;2023-04-03T03:19:29;4.79;82.05
70166;SHT30;57541;47.408;18.822;2023-04-03T03:20:01;4.77;81.88
70166;SHT30;57541;47.408;18.822;2023-04-03T03:20:32;4.79;82.04
70166;SHT30;57541;47.408;18.822;2023-04-03T03:21:04;4.77;81.80
70166;SHT30;57541;47.408;18.822;2023-04-03T03:21:37;4.78;81.89
70166;SHT30;57541;47.408;18.822;2023-04-03T03:22:08;4.77;81.93
70166;SHT30;57541;47.408;18.822;2023-04-03T03:22:40;4.72;82.20
70166;SHT30;57541;47.408;18.822;2023-04-03T03:23:12;4.75;82.30
70166;SHT30;57541;47.408;18.822;2023-04-03T03:23:43;4.72;82.46
70166;SHT30;57541;47.408;18.822;2023-04-03T03:24:15;4.78;82.35
70166;SHT30;57541;47.408;18.822;2023-04-03T03:24:47;4.71;82.46
70166;SHT30;57541;47.408;18.822;2023-04-03T03:25:18;4.74;82.56
70166;SHT30;57541;47.408;18.822;2023-04-03T03:25:55;4.77;82.59
70166;SHT30;57541;47.408;18.822;2023-04-03T03:26:28;4.74;82.19
70166;SHT30;57541;47.408;18.822;2023-04-03T03:27:00;4.72;82.31
70166;SHT30;57541;47.408;18.822;2023-04-03T03:27:32;4.77;82.13
70166;SHT30;57541;47.408;18.822;2023-04-03T03:28:03;4.72;82.34
70166;SHT30;57541;47.408;18.822;2023-04-03T03:28:37;4.71;82.53
70166;SHT30;57541;47.408;18.822;2023-04-03T03:29:09;4.75;82.42
70166;SHT30;57541;47.408;18.822;2023-04-03T03:29:41;4.75;82.27